Location Glendale, AZ, US

ob KWR6634 122045Z AUTO 25003G06KT FEW200 42/17 A2968 RMK SLPNO 

2020.08.12 2045 UTC
Wind from the WSW (250 degrees) at 3.0 MPH (3 KT) gusting to 7.0 MPH (6 KT)
Visibility    Mile(s)
Sky Conditions  partly cloudy
Temperature 107.90 F (42 C)
Dew Point 63.35 F (17 C)
Relative Humidity 24%
Pressure   29.68 in. Hg (1005 hPa)
Rain  0.00 in.
Daily Rain  in.

Station Name  My Glendale Arizona Weather Station
Longitude, Latitude  -112.20133199999998, 33.58645
Elevation 1180
Station URL www.myglendalewxs.com
Software Type VWS V15.00